Flight Track Log - Related Links

Times and Time Zones

All times are in EDT time to prevent confusion due to time zone crossing. See the N295DS flight status page for this flight to view local times or setup timezone preferences in your user account.

Time Position Orientation Groundspeed Altitude Reporting Facility
EDT Latitude Longitude Course Direction KTS MPH feet Rate Location/Type
Sat 08:45:01 AM 43.5586 -83.8697 352° North 223 257 5,600  Level Cleveland Center
Sat 08:46:02 AM 43.6194 -83.8972 342° North 219 252 8,200 2,293 Climbing Cleveland Center
Sat 08:47:04 AM 43.6756 -83.9150 347° North 229 264 10,300 2,098 Climbing Cleveland Center
Sat 08:48:05 AM 43.7378 -83.9367 346° North 229 264 12,500 2,146 Climbing Cleveland Center
Sat 08:49:00 AM 43.5073 -83.8810 350° North  Level FlightAware Approximate
Sat 08:49:07 AM 43.8008 -83.9544 348° North 229 264 14,700  Level Cleveland Center
Sat 08:50:00 AM 43.5796 -83.8959 352° North  Level FlightAware Approximate
Sat 08:50:08 AM 43.8692 -83.9756 347° North 233 268 16,000  Level Cleveland Center
Sat 08:50:59 AM 43.9292 -83.9956 347° North 258 297 17,400 1,805 Climbing Minneapolis Center
Sat 08:52:01 AM 44.0142 -84.0222 347° North 265 305 19,400 1,659 Climbing Minneapolis Center
Sat 08:53:02 AM 44.0844 -84.0456 347° North 261 300 20,800 1,220 Climbing Minneapolis Center
Sat 08:54:04 AM 44.1642 -84.0708 347° North 274 315 21,900 581 Climbing Minneapolis Center
Sat 08:55:06 AM 44.2447 -84.0967 347° North 291 335 22,000 49 Climbing Minneapolis Center
Sat 08:56:07 AM 44.3356 -84.1267 347° North 326 375 22,000  Level Minneapolis Center
Sat 08:57:09 AM 44.4275 -84.1569 347° North 335 386 22,000  Level Minneapolis Center
Sat 08:58:10 AM 44.5200 -84.1867 347° North 339 390 22,000  Level Minneapolis Center
Sat 08:59:15 AM 44.6283 -84.2219 347° North 338 389 22,000 -142 Level Minneapolis Center
Sat 09:00:17 AM 44.7183 -84.2514 347° North 337 388 21,700 -341 Descending Minneapolis Center
Sat 09:01:18 AM 44.8089 -84.2808 347° North 336 387 21,300 -390 Descending Minneapolis Center
Sat 09:02:20 AM 44.9011 -84.3119 347° North 337 388 20,900 -823 Descending Minneapolis Center
Sat 09:03:22 AM 44.9922 -84.3425 347° North 337 388 19,600 -1,610 Descending Minneapolis Center
Sat 09:04:23 AM 45.0936 -84.3769 347° North 329 379 17,600 -1,951 Descending Minneapolis Center
Sat 09:05:25 AM 45.1794 -84.4061 347° North 322 371 15,600 -2,000 Descending Minneapolis Center
Sat 09:06:26 AM 45.2697 -84.4369 346° North 313 360 13,500 -1,902 Descending Minneapolis Center
Sat 09:07:28 AM 45.3497 -84.4631 347° North 300 345 11,700 -1,756 Descending Minneapolis Center
Sat 09:08:29 AM 45.4283 -84.4903 346° North 295 339 9,900 -1,805 Descending Minneapolis Center
Sat 09:09:31 AM 45.5119 -84.5178 347° North 293 337 8,000 -1,742 Descending Minneapolis Center
Sat 09:10:33 AM 45.5861 -84.5431 347° North 279 321 6,300 -1,645 Descending Minneapolis Center

Login

Don't have an account? Register now (free) for customized features, flight alerts, and more!